sensor_id;sensor_type;location;lat;lon;timestamp;pressure;altitude;pressure_sealevel;temperature;humidity
19736;BME280;32064;49.310;8.646;2023-02-01T00:01:21;101174.03;;;8.05;82.36
19736;BME280;32064;49.310;8.646;2023-02-01T00:03:46;101180.22;;;8.04;82.27
19736;BME280;32064;49.310;8.646;2023-02-01T00:06:12;101177.50;;;8.05;82.26
19736;BME280;32064;49.310;8.646;2023-02-01T00:08:37;101177.50;;;8.05;82.18
19736;BME280;32064;49.310;8.646;2023-02-01T00:11:08;101181.91;;;8.05;82.42
19736;BME280;32064;49.310;8.646;2023-02-01T00:13:36;101169.50;;;8.08;82.12
19736;BME280;32064;49.310;8.646;2023-02-01T00:16:10;101177.31;;;8.10;81.87
19736;BME280;32064;49.310;8.646;2023-02-01T00:18:37;101177.22;;;8.12;82.45
19736;BME280;32064;49.310;8.646;2023-02-01T00:21:03;101173.09;;;8.06;81.96
19736;BME280;32064;49.310;8.646;2023-02-01T00:23:32;101173.94;;;8.06;82.89
19736;BME280;32064;49.310;8.646;2023-02-01T00:26:00;101180.13;;;8.05;82.63
19736;BME280;32064;49.310;8.646;2023-02-01T00:28:26;101169.59;;;8.07;82.07
19736;BME280;32064;49.310;8.646;2023-02-01T00:30:56;101175.44;;;8.12;82.54
19736;BME280;32064;49.310;8.646;2023-02-01T00:33:22;101174.59;;;8.12;82.38
19736;BME280;32064;49.310;8.646;2023-02-01T00:35:48;101160.63;;;8.11;82.32
19736;BME280;32064;49.310;8.646;2023-02-01T00:38:13;101165.88;;;8.11;82.25
19736;BME280;32064;49.310;8.646;2023-02-01T00:40:38;101158.88;;;8.12;82.06
19736;BME280;32064;49.310;8.646;2023-02-01T00:43:04;101157.03;;;8.14;82.38
19736;BME280;32064;49.310;8.646;2023-02-01T00:45:29;101154.63;;;8.09;81.26
19736;BME280;32064;49.310;8.646;2023-02-01T00:47:55;101159.16;;;8.05;82.18
19736;BME280;32064;49.310;8.646;2023-02-01T00:50:20;101153.22;;;8.02;83.13
19736;BME280;32064;49.310;8.646;2023-02-01T00:52:45;101151.44;;;8.02;82.55
19736;BME280;32064;49.310;8.646;2023-02-01T00:55:11;101158.47;;;8.02;82.82
19736;BME280;32064;49.310;8.646;2023-02-01T00:57:36;101157.31;;;8.07;82.35
19736;BME280;32064;49.310;8.646;2023-02-01T01:00:02;101156.41;;;8.08;82.67
19736;BME280;32064;49.310;8.646;2023-02-01T01:02:27;101171.06;;;8.13;82.48
19736;BME280;32064;49.310;8.646;2023-02-01T01:04:53;101165.81;;;8.13;82.18
19736;BME280;32064;49.310;8.646;2023-02-01T01:07:18;101159.94;;;8.07;82.70
19736;BME280;32064;49.310;8.646;2023-02-01T01:09:44;101165.81;;;8.13;82.25
19736;BME280;32064;49.310;8.646;2023-02-01T01:12:09;101158.81;;;8.13;81.88
19736;BME280;32064;49.310;8.646;2023-02-01T01:14:35;101150.09;;;8.13;82.25
19736;BME280;32064;49.310;8.646;2023-02-01T01:17:00;101144.88;;;8.13;82.41
19736;BME280;32064;49.310;8.646;2023-02-01T01:19:26;101143.09;;;8.13;82.60
19736;BME280;32064;49.310;8.646;2023-02-01T01:21:52;101136.75;;;8.17;82.26
19736;BME280;32064;49.310;8.646;2023-02-01T01:24:17;101138.53;;;8.17;82.60
19736;BME280;32064;49.310;8.646;2023-02-01T01:26:42;101145.72;;;8.13;82.79
19736;BME280;32064;49.310;8.646;2023-02-01T01:29:09;101154.06;;;8.21;81.87
19736;BME280;32064;49.310;8.646;2023-02-01T01:31:34;101158.56;;;8.18;82.21
19736;BME280;32064;49.310;8.646;2023-02-01T01:34:00;101155.25;;;8.14;82.47
19736;BME280;32064;49.310;8.646;2023-02-01T01:36:26;101152.63;;;8.14;82.56
19736;BME280;32064;49.310;8.646;2023-02-01T01:38:52;101145.31;;;8.21;82.04
19736;BME280;32064;49.310;8.646;2023-02-01T01:41:20;101155.09;;;8.17;82.35
19736;BME280;32064;49.310;8.646;2023-02-01T01:43:55;101155.75;;;8.22;82.08
19736;BME280;32064;49.310;8.646;2023-02-01T01:46:41;101168.91;;;8.21;82.10
19736;BME280;32064;49.310;8.646;2023-02-01T01:49:13;101166.16;;;8.24;82.13
19736;BME280;32064;49.310;8.646;2023-02-01T01:52:01;101175.06;;;8.20;82.34
19736;BME280;32064;49.310;8.646;2023-02-01T01:54:31;101170.31;;;8.28;81.86
19736;BME280;32064;49.310;8.646;2023-02-01T01:57:01;101151.97;;;8.28;81.86
19736;BME280;32064;49.310;8.646;2023-02-01T01:59:31;101151.91;;;8.29;81.38
19736;BME280;32064;49.310;8.646;2023-02-01T02:01:57;101148.56;;;8.26;81.91
19736;BME280;32064;49.310;8.646;2023-02-01T02:04:24;101150.34;;;8.25;81.75
19736;BME280;32064;49.310;8.646;2023-02-01T02:06:59;101156.22;;;8.30;81.69
19736;BME280;32064;49.310;8.646;2023-02-01T02:09:25;101153.44;;;8.33;81.57
19736;BME280;32064;49.310;8.646;2023-02-01T02:11:51;101140.34;;;8.33;81.62
19736;BME280;32064;49.310;8.646;2023-02-01T02:14:19;101127.38;;;8.30;81.48
19736;BME280;32064;49.310;8.646;2023-02-01T02:28:05;101164.16;;;8.29;81.59
19736;BME280;32064;49.310;8.646;2023-02-01T02:35:52;101168.41;;;8.31;81.65
19736;BME280;32064;49.310;8.646;2023-02-01T02:38:32;101179.72;;;8.32;81.43
19736;BME280;32064;49.310;8.646;2023-02-01T02:41:08;101161.38;;;8.32;81.46
19736;BME280;32064;49.310;8.646;2023-02-01T02:43:45;101162.31;;;8.31;81.41
19736;BME280;32064;49.310;8.646;2023-02-01T02:46:37;101149.91;;;8.35;81.30
19736;BME280;32064;49.310;8.646;2023-02-01T02:49:36;101129.78;;;8.35;81.10
19736;BME280;32064;49.310;8.646;2023-02-01T02:52:12;101122.16;;;8.30;80.90
19736;BME280;32064;49.310;8.646;2023-02-01T02:54:59;101120.53;;;8.28;81.55
19736;BME280;32064;49.310;8.646;2023-02-01T02:57:33;101097.72;;;8.30;81.79
19736;BME280;32064;49.310;8.646;2023-02-01T03:00:23;101110.50;;;8.36;81.59
19736;BME280;32064;49.310;8.646;2023-02-01T03:03:08;101120.91;;;8.38;81.30
19736;BME280;32064;49.310;8.646;2023-02-01T03:05:52;101116.47;;;8.40;81.15
19736;BME280;32064;49.310;8.646;2023-02-01T03:08:23;101111.66;;;8.30;81.60
19736;BME280;32064;49.310;8.646;2023-02-01T03:11:11;101111.44;;;8.35;81.13
19736;BME280;32064;49.310;8.646;2023-02-01T03:16:14;101123.34;;;8.42;81.17
19736;BME280;32064;49.310;8.646;2023-02-01T03:22:09;101120.72;;;8.42;81.47
19736;BME280;32064;49.310;8.646;2023-02-01T03:24:43;101122.66;;;8.39;81.63
19736;BME280;32064;49.310;8.646;2023-02-01T03:27:30;101124.19;;;8.43;82.09
19736;BME280;32064;49.310;8.646;2023-02-01T03:30:02;101114.47;;;8.45;81.40
19736;BME280;32064;49.310;8.646;2023-02-01T03:32:31;101112.53;;;8.48;81.47
19736;BME280;32064;49.310;8.646;2023-02-01T03:35:18;101116.31;;;8.43;81.26
19736;BME280;32064;49.310;8.646;2023-02-01T03:37:49;101111.75;;;8.46;82.00
19736;BME280;32064;49.310;8.646;2023-02-01T03:40:17;101118.88;;;8.44;81.72
19736;BME280;32064;49.310;8.646;2023-02-01T03:42:48;101112.69;;;8.45;81.56
19736;BME280;32064;49.310;8.646;2023-02-01T03:47:52;101106.94;;;8.37;81.77
19736;BME280;32064;49.310;8.646;2023-02-01T03:50:21;101110.00;;;8.47;81.01
19736;BME280;32064;49.310;8.646;2023-02-01T03:55:20;101116.47;;;8.40;81.31
19736;BME280;32064;49.310;8.646;2023-02-01T03:58:15;101128.69;;;8.41;81.26
19736;BME280;32064;49.310;8.646;2023-02-01T04:00:45;101131.06;;;8.45;81.04
19736;BME280;32064;49.310;8.646;2023-02-01T04:03:11;101124.66;;;8.51;81.14
19736;BME280;32064;49.310;8.646;2023-02-01T04:05:36;101115.09;;;8.50;80.80
19736;BME280;32064;49.310;8.646;2023-02-01T04:08:02;101119.41;;;8.51;81.06
19736;BME280;32064;49.310;8.646;2023-02-01T04:10:27;101123.03;;;8.48;81.39
19736;BME280;32064;49.310;8.646;2023-02-01T04:12:53;101111.53;;;8.51;81.28
19736;BME280;32064;49.310;8.646;2023-02-01T04:15:18;101112.16;;;8.56;81.06
19736;BME280;32064;49.310;8.646;2023-02-01T04:17:44;101115.00;;;8.51;81.32
19736;BME280;32064;49.310;8.646;2023-02-01T04:20:10;101113.16;;;8.53;81.49
19736;BME280;32064;49.310;8.646;2023-02-01T04:22:36;101105.25;;;8.55;80.68
19736;BME280;32064;49.310;8.646;2023-02-01T04:25:02;101097.22;;;8.58;80.99
19736;BME280;32064;49.310;8.646;2023-02-01T04:27:28;101100.91;;;8.54;81.07
19736;BME280;32064;49.310;8.646;2023-02-01T04:29:53;101083.69;;;8.48;81.37
19736;BME280;32064;49.310;8.646;2023-02-01T04:32:19;101082.00;;;8.47;81.08
19736;BME280;32064;49.310;8.646;2023-02-01T04:34:45;101073.31;;;8.47;81.17
19736;BME280;32064;49.310;8.646;2023-02-01T04:37:10;101084.78;;;8.44;80.97
19736;BME280;32064;49.310;8.646;2023-02-01T04:39:36;101093.41;;;8.46;81.49
19736;BME280;32064;49.310;8.646;2023-02-01T04:42:01;101100.44;;;8.46;80.89
19736;BME280;32064;49.310;8.646;2023-02-01T04:44:26;101092.72;;;8.43;80.90
19736;BME280;32064;49.310;8.646;2023-02-01T04:46:52;101102.47;;;8.41;80.94
19736;BME280;32064;49.310;8.646;2023-02-01T04:49:17;101105.16;;;8.39;81.11
19736;BME280;32064;49.310;8.646;2023-02-01T04:51:43;101113.00;;;8.39;81.36
19736;BME280;32064;49.310;8.646;2023-02-01T04:54:09;101108.66;;;8.38;80.88
19736;BME280;32064;49.310;8.646;2023-02-01T04:56:36;101117.53;;;8.36;81.12
19736;BME280;32064;49.310;8.646;2023-02-01T04:59:02;101109.66;;;8.36;80.98
19736;BME280;32064;49.310;8.646;2023-02-01T05:01:28;101108.66;;;8.38;81.51
19736;BME280;32064;49.310;8.646;2023-02-01T05:03:53;101101.72;;;8.37;81.25
19736;BME280;32064;49.310;8.646;2023-02-01T05:06:19;101093.16;;;8.33;81.51
19736;BME280;32064;49.310;8.646;2023-02-01T05:08:45;101099.94;;;8.38;81.11
19736;BME280;32064;49.310;8.646;2023-02-01T05:11:10;101095.63;;;8.37;81.03
19736;BME280;32064;49.310;8.646;2023-02-01T05:13:56;101101.72;;;8.37;81.74
19736;BME280;32064;49.310;8.646;2023-02-01T05:16:21;101104.31;;;8.37;81.52
19736;BME280;32064;49.310;8.646;2023-02-01T05:18:46;101099.09;;;8.37;81.17
19736;BME280;32064;49.310;8.646;2023-02-01T05:21:12;101102.78;;;8.33;81.23
19736;BME280;32064;49.310;8.646;2023-02-01T05:23:37;101111.22;;;8.40;80.94
19736;BME280;32064;49.310;8.646;2023-02-01T05:26:23;101111.34;;;8.37;81.48
19736;BME280;32064;49.310;8.646;2023-02-01T05:28:49;101116.53;;;8.38;81.63
19736;BME280;32064;49.310;8.646;2023-02-01T05:31:15;101107.88;;;8.36;81.57
19736;BME280;32064;49.310;8.646;2023-02-01T05:33:40;101112.28;;;8.36;81.23
19736;BME280;32064;49.310;8.646;2023-02-01T05:36:06;101109.72;;;8.34;81.95
19736;BME280;32064;49.310;8.646;2023-02-01T05:38:32;101103.50;;;8.37;81.60
19736;BME280;32064;49.310;8.646;2023-02-01T05:40:57;101114.69;;;8.40;81.73
19736;BME280;32064;49.310;8.646;2023-02-01T05:43:23;101123.91;;;8.30;82.17
19736;BME280;32064;49.310;8.646;2023-02-01T05:45:48;101121.00;;;8.36;81.61
19736;BME280;32064;49.310;8.646;2023-02-01T05:48:14;101117.31;;;8.40;81.11
19736;BME280;32064;49.310;8.646;2023-02-01T05:50:39;101118.53;;;8.33;82.48
19736;BME280;32064;49.310;8.646;2023-02-01T05:53:05;101118.28;;;8.38;82.56
19736;BME280;32064;49.310;8.646;2023-02-01T05:55:30;101119.59;;;8.29;82.79
19736;BME280;32064;49.310;8.646;2023-02-01T05:57:55;101113.34;;;8.31;82.40
19736;BME280;32064;49.310;8.646;2023-02-01T06:00:21;101114.44;;;8.27;82.79
19736;BME280;32064;49.310;8.646;2023-02-01T06:02:47;101110.41;;;8.20;83.13
19736;BME280;32064;49.310;8.646;2023-02-01T06:05:12;101110.41;;;8.20;83.14
19736;BME280;32064;49.310;8.646;2023-02-01T06:07:38;101115.50;;;8.23;83.21
19736;BME280;32064;49.310;8.646;2023-02-01T06:10:04;101113.88;;;8.21;83.61
19736;BME280;32064;49.310;8.646;2023-02-01T06:12:29;101102.53;;;8.20;83.40
19736;BME280;32064;49.310;8.646;2023-02-01T06:14:55;101107.94;;;8.17;83.61
19736;BME280;32064;49.310;8.646;2023-02-01T06:17:20;101112.28;;;8.18;83.59
19736;BME280;32064;49.310;8.646;2023-02-01T06:19:46;101113.94;;;8.19;83.79
19736;BME280;32064;49.310;8.646;2023-02-01T06:22:13;101119.81;;;8.24;83.58
19736;BME280;32064;49.310;8.646;2023-02-01T06:24:39;101106.72;;;8.24;83.86
19736;BME280;32064;49.310;8.646;2023-02-01T06:27:06;101117.75;;;8.31;83.52
19736;BME280;32064;49.310;8.646;2023-02-01T06:29:32;101124.91;;;8.27;83.25
19736;BME280;32064;49.310;8.646;2023-02-01T06:31:58;101123.13;;;8.28;83.70
19736;BME280;32064;49.310;8.646;2023-02-01T06:34:24;101116.13;;;8.28;83.39
19736;BME280;32064;49.310;8.646;2023-02-01T06:36:50;101111.81;;;8.27;83.68
19736;BME280;32064;49.310;8.646;2023-02-01T06:39:16;101119.69;;;8.27;83.55
19736;BME280;32064;49.310;8.646;2023-02-01T06:41:45;101120.53;;;8.28;83.70
19736;BME280;32064;49.310;8.646;2023-02-01T06:44:10;101123.84;;;8.31;83.29
19736;BME280;32064;49.310;8.646;2023-02-01T06:46:36;101127.44;;;8.29;83.68
19736;BME280;32064;49.310;8.646;2023-02-01T06:49:01;101106.78;;;8.23;83.45
19736;BME280;32064;49.310;8.646;2023-02-01T06:51:27;101121.19;;;8.14;84.74
19736;BME280;32064;49.310;8.646;2023-02-01T06:53:54;101122.66;;;8.20;84.14
19736;BME280;32064;49.310;8.646;2023-02-01T06:56:19;101124.97;;;8.26;84.24
19736;BME280;32064;49.310;8.646;2023-02-01T06:58:45;101128.59;;;8.23;84.36
19736;BME280;32064;49.310;8.646;2023-02-01T07:01:11;101130.38;;;8.23;83.69
19736;BME280;32064;49.310;8.646;2023-02-01T07:03:37;101125.06;;;8.24;84.51
19736;BME280;32064;49.310;8.646;2023-02-01T07:06:03;101135.63;;;8.23;84.68
19736;BME280;32064;49.310;8.646;2023-02-01T07:08:31;101139.94;;;8.24;84.27
19736;BME280;32064;49.310;8.646;2023-02-01T07:10:57;101136.56;;;8.22;84.71
19736;BME280;32064;49.310;8.646;2023-02-01T07:13:26;101146.09;;;8.23;84.57
19736;BME280;32064;49.310;8.646;2023-02-01T07:15:51;101145.09;;;8.25;84.37
19736;BME280;32064;49.310;8.646;2023-02-01T07:18:16;101144.25;;;8.25;84.11
19736;BME280;32064;49.310;8.646;2023-02-01T07:20:42;101146.78;;;8.26;84.61
19736;BME280;32064;49.310;8.646;2023-02-01T07:23:10;101144.25;;;8.25;84.27
19736;BME280;32064;49.310;8.646;2023-02-01T07:25:36;101143.13;;;8.30;84.18
19736;BME280;32064;49.310;8.646;2023-02-01T07:28:01;101144.91;;;8.30;83.81
19736;BME280;32064;49.310;8.646;2023-02-01T07:30:27;101128.88;;;8.36;83.70
19736;BME280;32064;49.310;8.646;2023-02-01T07:32:52;101131.47;;;8.36;83.62
19736;BME280;32064;49.310;8.646;2023-02-01T07:35:18;101137.56;;;8.37;83.39
19736;BME280;32064;49.310;8.646;2023-02-01T07:37:43;101143.53;;;8.40;83.93
19736;BME280;32064;49.310;8.646;2023-02-01T07:40:09;101151.50;;;8.39;83.57
19736;BME280;32064;49.310;8.646;2023-02-01T07:42:35;101143.47;;;8.42;83.70
19736;BME280;32064;49.310;8.646;2023-02-01T07:45:01;101127.06;;;8.56;82.96
19736;BME280;32064;49.310;8.646;2023-02-01T07:47:27;101124.91;;;8.64;82.64
19736;BME280;32064;49.310;8.646;2023-02-01T07:49:53;101122.28;;;8.64;83.14
19736;BME280;32064;49.310;8.646;2023-02-01T07:52:18;101123.44;;;8.58;83.52
19736;BME280;32064;49.310;8.646;2023-02-01T07:54:44;101131.47;;;8.55;83.94
19736;BME280;32064;49.310;8.646;2023-02-01T07:57:09;101131.69;;;8.50;83.81
19736;BME280;32064;49.310;8.646;2023-02-01T07:59:37;101137.63;;;8.54;83.89
19736;BME280;32064;49.310;8.646;2023-02-01T08:02:22;101137.84;;;8.49;83.75
19736;BME280;32064;49.310;8.646;2023-02-01T08:04:48;101156.75;;;8.56;84.18
19736;BME280;32064;49.310;8.646;2023-02-01T08:07:14;101170.16;;;8.50;84.49
19736;BME280;32064;49.310;8.646;2023-02-01T08:09:39;101174.56;;;8.49;84.74
19736;BME280;32064;49.310;8.646;2023-02-01T08:12:05;101186.66;;;8.52;84.78
19736;BME280;32064;49.310;8.646;2023-02-01T08:14:30;101192.69;;;8.54;84.91
19736;BME280;32064;49.310;8.646;2023-02-01T08:16:55;101195.16;;;8.57;84.89
19736;BME280;32064;49.310;8.646;2023-02-01T08:19:21;101203.75;;;8.61;85.00
19736;BME280;32064;49.310;8.646;2023-02-01T08:21:47;101210.53;;;8.65;84.90
19736;BME280;32064;49.310;8.646;2023-02-01T08:24:13;101206.44;;;8.59;85.63
19736;BME280;32064;49.310;8.646;2023-02-01T08:26:39;101210.72;;;8.60;84.80
19736;BME280;32064;49.310;8.646;2023-02-01T08:29:05;101207.69;;;8.69;85.47
19736;BME280;32064;49.310;8.646;2023-02-01T08:31:31;101203.81;;;8.76;85.44
19736;BME280;32064;49.310;8.646;2023-02-01T08:33:58;101212.78;;;8.90;84.31
19736;BME280;32064;49.310;8.646;2023-02-01T08:36:26;101206.69;;;9.07;84.70
19736;BME280;32064;49.310;8.646;2023-02-01T08:38:52;101196.94;;;9.26;84.02
19736;BME280;32064;49.310;8.646;2023-02-01T08:41:21;101193.44;;;9.43;83.76
19736;BME280;32064;49.310;8.646;2023-02-01T08:43:47;101199.88;;;9.37;83.84
19736;BME280;32064;49.310;8.646;2023-02-01T08:46:13;101197.31;;;9.36;83.41
19736;BME280;32064;49.310;8.646;2023-02-01T08:48:39;101202.56;;;9.36;83.73
19736;BME280;32064;49.310;8.646;2023-02-01T08:51:08;101196.63;;;9.32;83.55
19736;BME280;32064;49.310;8.646;2023-02-01T08:53:34;101198.16;;;9.36;83.42
19736;BME280;32064;49.310;8.646;2023-02-01T08:56:01;101203.19;;;9.41;84.09
19736;BME280;32064;49.310;8.646;2023-02-01T08:58:27;101200.88;;;9.35;83.64
19736;BME280;32064;49.310;8.646;2023-02-01T09:00:52;101198.94;;;9.38;82.68
19736;BME280;32064;49.310;8.646;2023-02-01T09:03:18;101187.31;;;9.42;82.92
19736;BME280;32064;49.310;8.646;2023-02-01T09:05:44;101195.59;;;9.52;83.02
19736;BME280;32064;49.310;8.646;2023-02-01T09:08:11;101189.72;;;9.47;82.76
19736;BME280;32064;49.310;8.646;2023-02-01T09:10:40;101196.75;;;9.47;82.83
19736;BME280;32064;49.310;8.646;2023-02-01T09:13:06;101192.50;;;9.44;81.88
19736;BME280;32064;49.310;8.646;2023-02-01T09:15:33;101191.00;;;9.40;81.75
19736;BME280;32064;49.310;8.646;2023-02-01T09:17:59;101199.94;;;9.36;81.20
19736;BME280;32064;49.310;8.646;2023-02-01T09:20:24;101203.34;;;9.38;81.46
19736;BME280;32064;49.310;8.646;2023-02-01T09:22:51;101211.06;;;9.41;81.86
19736;BME280;32064;49.310;8.646;2023-02-01T09:25:17;101223.25;;;9.42;82.18
19736;BME280;32064;49.310;8.646;2023-02-01T09:27:42;101217.25;;;9.40;81.12
19736;BME280;32064;49.310;8.646;2023-02-01T09:30:08;101213.59;;;9.42;80.90
19736;BME280;32064;49.310;8.646;2023-02-01T09:32:35;101210.50;;;9.52;79.79
19736;BME280;32064;49.310;8.646;2023-02-01T09:35:00;101216.53;;;9.70;80.21
19736;BME280;32064;49.310;8.646;2023-02-01T09:37:26;101214.69;;;9.72;80.07
19736;BME280;32064;49.310;8.646;2023-02-01T09:39:51;101216.94;;;9.62;79.61
19736;BME280;32064;49.310;8.646;2023-02-01T09:45:24;101224.47;;;9.52;79.88
19736;BME280;32064;49.310;8.646;2023-02-01T09:47:55;101239.28;;;9.53;79.74
19736;BME280;32064;49.310;8.646;2023-02-01T09:50:35;101235.94;;;9.67;78.35
19736;BME280;32064;49.310;8.646;2023-02-01T09:53:12;101235.41;;;10.09;78.44
19736;BME280;32064;49.310;8.646;2023-02-01T09:55:43;101240.38;;;10.31;78.84
19736;BME280;32064;49.310;8.646;2023-02-01T10:00:40;101262.19;;;10.33;77.69
19736;BME280;32064;49.310;8.646;2023-02-01T10:03:11;101263.38;;;10.28;77.97
19736;BME280;32064;49.310;8.646;2023-02-01T10:10:47;101260.16;;;10.39;75.65
19736;BME280;32064;49.310;8.646;2023-02-01T10:21:34;101274.69;;;10.12;74.94
19736;BME280;32064;49.310;8.646;2023-02-01T10:24:20;101276.06;;;10.20;75.38
19736;BME280;32064;49.310;8.646;2023-02-01T10:29:39;101285.31;;;10.11;74.82
19736;BME280;32064;49.310;8.646;2023-02-01T10:32:33;101277.03;;;10.01;74.42
19736;BME280;32064;49.310;8.646;2023-02-01T10:35:22;101287.72;;;9.98;73.25
19736;BME280;32064;49.310;8.646;2023-02-01T10:37:49;101286.22;;;9.94;73.95
19736;BME280;32064;49.310;8.646;2023-02-01T10:40:18;101287.28;;;9.90;72.91
19736;BME280;32064;49.310;8.646;2023-02-01T10:42:47;101272.63;;;9.86;73.04
19736;BME280;32064;49.310;8.646;2023-02-01T10:45:19;101268.22;;;9.86;73.88
19736;BME280;32064;49.310;8.646;2023-02-01T10:47:47;101266.81;;;9.79;73.77
19736;BME280;32064;49.310;8.646;2023-02-01T10:52:58;101268.75;;;9.76;73.98
19736;BME280;32064;49.310;8.646;2023-02-01T10:55:30;101266.13;;;9.76;72.76
19736;BME280;32064;49.310;8.646;2023-02-01T10:57:59;101268.75;;;9.76;72.31
19736;BME280;32064;49.310;8.646;2023-02-01T11:00:26;101254.47;;;9.81;73.03
19736;BME280;32064;49.310;8.646;2023-02-01T11:02:52;101260.38;;;9.85;73.58
19736;BME280;32064;49.310;8.646;2023-02-01T11:05:18;101250.66;;;9.87;73.43
19736;BME280;32064;49.310;8.646;2023-02-01T11:07:49;101254.28;;;9.84;72.45
19736;BME280;32064;49.310;8.646;2023-02-01T11:10:39;101250.91;;;9.82;73.39
19736;BME280;32064;49.310;8.646;2023-02-01T11:13:17;101245.16;;;9.92;73.27
19736;BME280;32064;49.310;8.646;2023-02-01T11:15:44;101231.50;;;10.01;73.26
19736;BME280;32064;49.310;8.646;2023-02-01T11:18:19;101232.03;;;10.07;73.20
19736;BME280;32064;49.310;8.646;2023-02-01T11:20:46;101220.31;;;10.13;72.29
19736;BME280;32064;49.310;8.646;2023-02-01T11:23:20;101209.97;;;10.10;72.88
19736;BME280;32064;49.310;8.646;2023-02-01T11:25:52;101215.00;;;10.15;72.65
19736;BME280;32064;49.310;8.646;2023-02-01T11:28:21;101211.00;;;10.07;72.82
19736;BME280;32064;49.310;8.646;2023-02-01T11:30:48;101208.13;;;10.12;72.40
19736;BME280;32064;49.310;8.646;2023-02-01T11:33:18;101200.56;;;10.06;73.05
19736;BME280;32064;49.310;8.646;2023-02-01T11:35:45;101208.53;;;10.04;73.50
19736;BME280;32064;49.310;8.646;2023-02-01T11:38:22;101201.59;;;10.03;72.95
19736;BME280;32064;49.310;8.646;2023-02-01T11:40:50;101194.13;;;10.11;72.83
19736;BME280;32064;49.310;8.646;2023-02-01T11:43:25;101197.66;;;10.10;73.30
19736;BME280;32064;49.310;8.646;2023-02-01T11:46:02;101197.19;;;10.04;72.66
19736;BME280;32064;49.310;8.646;2023-02-01T11:48:30;101199.56;;;10.08;72.01
19736;BME280;32064;49.310;8.646;2023-02-01T11:56:36;101195.22;;;10.07;71.84
19736;BME280;32064;49.310;8.646;2023-02-01T12:01:44;101192.75;;;10.04;72.38
19736;BME280;32064;49.310;8.646;2023-02-01T12:04:42;101192.88;;;10.03;72.46
19736;BME280;32064;49.310;8.646;2023-02-01T12:07:17;101197.09;;;10.05;71.68
19736;BME280;32064;49.310;8.646;2023-02-01T12:18:14;101201.25;;;10.09;71.89
19736;BME280;32064;49.310;8.646;2023-02-01T12:34:31;101196.00;;;9.94;69.21
19736;BME280;32064;49.310;8.646;2023-02-01T12:42:56;101182.31;;;9.87;68.92
19736;BME280;32064;49.310;8.646;2023-02-01T12:45:31;101183.09;;;9.89;69.35
19736;BME280;32064;49.310;8.646;2023-02-01T12:48:22;101171.91;;;9.85;69.19
19736;BME280;32064;49.310;8.646;2023-02-01T12:50:56;101181.41;;;9.88;69.13
19736;BME280;32064;49.310;8.646;2023-02-01T12:53:55;101183.16;;;9.87;68.48
19736;BME280;32064;49.310;8.646;2023-02-01T12:56:47;101173.19;;;9.94;67.38
19736;BME280;32064;49.310;8.646;2023-02-01T12:59:28;101168.84;;;9.93;67.36
19736;BME280;32064;49.310;8.646;2023-02-01T13:02:27;101174.78;;;9.81;67.76
19736;BME280;32064;49.310;8.646;2023-02-01T13:05:18;101168.59;;;9.82;67.86
19736;BME280;32064;49.310;8.646;2023-02-01T13:07:59;101157.59;;;9.91;67.26
19736;BME280;32064;49.310;8.646;2023-02-01T13:10:34;101158.16;;;9.96;67.69
19736;BME280;32064;49.310;8.646;2023-02-01T13:16:02;101151.22;;;9.95;66.32
19736;BME280;32064;49.310;8.646;2023-02-01T13:18:36;101136.28;;;9.96;66.96
19736;BME280;32064;49.310;8.646;2023-02-01T13:21:18;101140.03;;;9.92;66.21
19736;BME280;32064;49.310;8.646;2023-02-01T13:23:47;101138.25;;;9.92;66.97
19736;BME280;32064;49.310;8.646;2023-02-01T13:26:14;101129.59;;;9.90;65.87
19736;BME280;32064;49.310;8.646;2023-02-01T13:29:05;101125.19;;;9.90;66.51
19736;BME280;32064;49.310;8.646;2023-02-01T13:32:11;101116.38;;;9.92;64.83
19736;BME280;32064;49.310;8.646;2023-02-01T13:35:00;101122.66;;;9.89;65.30
19736;BME280;32064;49.310;8.646;2023-02-01T13:37:57;101125.03;;;9.94;65.22
19736;BME280;32064;49.310;8.646;2023-02-01T13:42:54;101111.19;;;9.90;65.28
19736;BME280;32064;49.310;8.646;2023-02-01T13:45:26;101118.72;;;9.96;66.21
19736;BME280;32064;49.310;8.646;2023-02-01T13:47:56;101116.81;;;10.00;65.22
19736;BME280;32064;49.310;8.646;2023-02-01T13:50:37;101126.47;;;9.99;65.48
19736;BME280;32064;49.310;8.646;2023-02-01T13:55:40;101121.72;;;10.06;66.13
19736;BME280;32064;49.310;8.646;2023-02-01T13:58:18;101127.81;;;10.06;66.39
19736;BME280;32064;49.310;8.646;2023-02-01T14:00:44;101129.00;;;10.01;64.64
19736;BME280;32064;49.310;8.646;2023-02-01T14:03:16;101125.28;;;10.05;65.04
19736;BME280;32064;49.310;8.646;2023-02-01T14:06:03;101130.69;;;10.02;66.07
19736;BME280;32064;49.310;8.646;2023-02-01T14:08:42;101144.28;;;9.94;66.02
19736;BME280;32064;49.310;8.646;2023-02-01T14:11:31;101133.84;;;9.93;65.49
19736;BME280;32064;49.310;8.646;2023-02-01T14:14:13;101137.41;;;9.92;65.07
19736;BME280;32064;49.310;8.646;2023-02-01T14:19:23;101126.97;;;9.90;65.30
19736;BME280;32064;49.310;8.646;2023-02-01T14:21:51;101107.72;;;9.89;64.89
19736;BME280;32064;49.310;8.646;2023-02-01T14:24:26;101124.50;;;9.87;64.31
19736;BME280;32064;49.310;8.646;2023-02-01T14:26:53;101130.19;;;9.95;64.40
19736;BME280;32064;49.310;8.646;2023-02-01T14:29:34;101134.94;;;9.88;65.30
19736;BME280;32064;49.310;8.646;2023-02-01T14:44:49;101140.34;;;10.01;63.83
19736;BME280;32064;49.310;8.646;2023-02-01T14:52:29;101147.06;;;9.91;65.49
19736;BME280;32064;49.310;8.646;2023-02-01T14:55:01;101143.34;;;9.95;64.72
19736;BME280;32064;49.310;8.646;2023-02-01T14:57:31;101150.38;;;9.95;64.36
19736;BME280;32064;49.310;8.646;2023-02-01T15:00:07;101144.34;;;9.93;65.35
19736;BME280;32064;49.310;8.646;2023-02-01T15:02:36;101141.72;;;9.93;65.09
19736;BME280;32064;49.310;8.646;2023-02-01T15:05:40;101145.28;;;9.92;64.61
19736;BME280;32064;49.310;8.646;2023-02-01T15:08:16;101142.72;;;9.90;65.46
19736;BME280;32064;49.310;8.646;2023-02-01T15:10:46;101160.13;;;9.93;64.44
19736;BME280;32064;49.310;8.646;2023-02-01T15:13:24;101156.88;;;9.87;63.86